Terminal Aerodrome Forecast
Issued by NWS

Home | Current Version | Previous Version | Text Only | Print | Product List | Glossary On
Versions: 1 2 3 4 5 6 7 8 9 10 11 12 13 14 15 16 17 18 19
165
FTUS44 KCRP 221739
TAFLRD
TAF
KLRD 221739Z 2218/2318 31028G39KT P6SM SKC
     FM222200 33024G30KT P6SM SKC
     FM230000 34014G24KT P6SM SKC
     FM230200 33007KT P6SM SKC
     FM231200 VRB02KT P6SM SKC=

USA.gov is the U.S. government's official web portal to all federal, state and local government web resources and services.